createdAt,value
2022-09-13T00:00:00.000Z,10.61
2022-09-13T00:15:00.000Z,10.68
2022-09-13T00:30:00.000Z,10.95
2022-09-13T00:45:00.000Z,11.35
2022-09-13T01:00:00.000Z,9.54
2022-09-13T01:15:00.000Z,8.75
2022-09-13T01:30:00.000Z,9.84
2022-09-13T01:45:00.000Z,8.11
2022-09-13T02:00:00.000Z,7.65
2022-09-13T02:15:00.000Z,8.92
2022-09-13T02:30:00.000Z,7.62
2022-09-13T02:45:00.000Z,7.42
2022-09-13T03:00:00.000Z,7.29
2022-09-13T03:15:00.000Z,7.25
2022-09-13T03:30:00.000Z,7.22
2022-09-13T03:45:00.000Z,7.2
2022-09-13T04:00:00.000Z,7.27
2022-09-13T04:15:00.000Z,8.21
2022-09-13T04:30:00.000Z,10.05
2022-09-13T04:45:00.000Z,10.2
2022-09-13T05:00:00.000Z,9.99
2022-09-13T05:15:00.000Z,8.38
2022-09-13T05:30:00.000Z,7.62
2022-09-13T05:45:00.000Z,7.06
2022-09-13T06:00:00.000Z,6.75
2022-09-13T06:15:00.000Z,6.94
2022-09-13T06:30:00.000Z,6.12
2022-09-13T06:45:00.000Z,5.16
2022-09-13T07:00:00.000Z,5.76
2022-09-13T07:15:00.000Z,4.92
2022-09-13T07:30:00.000Z,4.75
2022-09-13T07:45:00.000Z,5.22
2022-09-13T08:00:00.000Z,4.58
2022-09-13T08:15:00.000Z,4.55
2022-09-13T08:30:00.000Z,4.49
2022-09-13T08:45:00.000Z,4.68
2022-09-13T09:00:00.000Z,4.39
2022-09-13T09:15:00.000Z,4.69
2022-09-13T09:30:00.000Z,4.52
2022-09-13T09:45:00.000Z,4.4
2022-09-13T10:00:00.000Z,5.08
2022-09-13T10:15:00.000Z,4.47
2022-09-13T10:30:00.000Z,4.81
2022-09-13T10:45:00.000Z,6.51
2022-09-13T11:00:00.000Z,5.39
2022-09-13T11:15:00.000Z,6.34
2022-09-13T11:30:00.000Z,5.88
2022-09-13T11:45:00.000Z,5.18
2022-09-13T12:00:00.000Z,6.13
2022-09-13T12:15:00.000Z,4.88
2022-09-13T12:30:00.000Z,6.99
2022-09-13T12:45:00.000Z,5.73
2022-09-13T13:00:00.000Z,5.48
2022-09-13T13:15:00.000Z,4.78
2022-09-13T13:30:00.000Z,5.66
2022-09-13T13:45:00.000Z,5.02
2022-09-13T14:00:00.000Z,4.69
2022-09-13T14:15:00.000Z,5.18
2022-09-13T14:30:00.000Z,4.95
2022-09-13T14:45:00.000Z,5.82
2022-09-13T15:00:00.000Z,7.67
2022-09-13T15:15:00.000Z,13.89
2022-09-13T15:30:00.000Z,13.2
2022-09-13T15:45:00.000Z,5.86
2022-09-13T16:00:00.000Z,5.94
2022-09-13T16:15:00.000Z,5.62
2022-09-13T16:30:00.000Z,5.78
2022-09-13T16:45:00.000Z,5.66
2022-09-13T17:00:00.000Z,6.13
2022-09-13T17:15:00.000Z,5.68
2022-09-13T17:30:00.000Z,6.66
2022-09-13T17:45:00.000Z,13.34
2022-09-13T18:00:00.000Z,9.76
2022-09-13T18:15:00.000Z,9.6
2022-09-13T18:30:00.000Z,9.01
2022-09-13T18:45:00.000Z,7.45
2022-09-13T19:00:00.000Z,7.46
2022-09-13T19:15:00.000Z,8.16
2022-09-13T19:30:00.000Z,7.84
2022-09-13T19:45:00.000Z,7.95
2022-09-13T20:15:00.000Z,7
2022-09-13T20:15:00.000Z,7.44
2022-09-13T20:30:00.000Z,7.69
2022-09-13T20:45:00.000Z,7.39
2022-09-13T21:00:00.000Z,7.34
2022-09-13T21:15:00.000Z,7.38
2022-09-13T21:30:00.000Z,7.65
2022-09-13T21:45:00.000Z,7.49
2022-09-13T22:00:00.000Z,7.35
2022-09-13T22:15:00.000Z,7.29
2022-09-13T22:30:00.000Z,7.31
2022-09-13T22:45:00.000Z,7.52
2022-09-13T23:00:00.000Z,7.59
2022-09-13T23:15:00.000Z,7.58
2022-09-13T23:30:00.000Z,7.88
2022-09-13T23:45:00.000Z,7.32
